Overseas Visayas — V7NE6 — position and weather

sailwx.info

Track history (hours):
 
Tides and Currents Weather Stations Pressure Air Temp Water Temp Dewpoint Dewpoint Depression Visibility Wind Speed Wind Dir Waves Ship Positions

Overseas Visayas

Last reported at 2018-Jan-12 09:14 UTC. Time now 2018-Jan-20 17:04 UTC.
Position N 32°13' W 117°34'.
Warning: this ship's position is 8 days out of date.

Length 228 m; draft 8.7 m.

Type: Ship (hazmat cat A). MMSI: 538002947.

Date/timePositionNaut miles runAvg speedWind from/ knotsBaromVisibWave heightAir tempDewpointWater temp
2018-Jan-12 09:14N 32°13' W 117°34'313.5
2018-Jan-12 09:00N 32°17' W 117°35'713.6
2018-Jan-12 08:28N 32°24' W 117°37'613.6
2018-Jan-12 08:00N 32°30' W 117°38'713.3
2018-Jan-12 07:30N 32°36' W 117°40'713.4
2018-Jan-12 07:00N 32°42' W 117°44'713.4
2018-Jan-12 06:30N 32°48' W 117°47'713.5
2018-Jan-12 06:00N 32°54' W 117°51'713.4
2018-Jan-12 05:30N 33°00' W 117°55'612.6
2018-Jan-12 05:00N 33°06' W 117°58'611.4
2018-Jan-12 04:30N 33°11' W 118°01'611.5
2018-Jan-12 04:00N 33°16' W 118°04'611.6
2018-Jan-12 03:30N 33°21' W 118°07'611.7
2018-Jan-12 03:00N 33°27' W 118°09'611.8
2018-Jan-12 02:30N 33°32' W 118°12'611.2
2018-Jan-12 02:00N 33°38' W 118°12'5 9.6
2018-Jan-12 01:28N 33°43' W 118°11'2 2.7
2018-Jan-12 00:42N 33°44' W 118°13'0 0.0
2018-Jan-12 00:30N 33°44' W 118°13'6 0.1
2018-Jan-09 20:54N 33°39' W 118°10'24 6.2
2018-Jan-09 17:04N 33°16' W 118°01'0 1.3
2018-Jan-09 16:59N 33°16' W 118°01'9 8.9
2018-Jan-09 16:01N 33°08' W 117°58'011.2
2018-Jan-09 15:59N 33°08' W 117°58'510.7
2018-Jan-09 15:30N 33°03' W 117°55'510.6
2018-Jan-09 15:00N 32°58' W 117°52'611.8
2018-Jan-09 14:30N 32°53' W 117°48'612.0
2018-Jan-09 14:00N 32°51' W 117°55'2 4.4
2018-Jan-09 13:30N 32°49' W 117°55'276 9.7
2018-Jan-08 09:10N 34°17' W 123°09'212.2
2018-Jan-08 09:00N 34°19' W 123°10'612.2
2018-Jan-08 08:30N 34°24' W 123°14'612.4
2018-Jan-08 08:00N 34°30' W 123°17'612.2
2018-Jan-08 07:30N 34°35' W 123°21'612.3
2018-Jan-08 07:00N 34°40' W 123°25'612.4
2018-Jan-08 06:30N 34°46' W 123°28'612.4
2018-Jan-08 06:00N 34°51' W 123°32'612.4
2018-Jan-08 05:30N 34°57' W 123°36'612.8
2018-Jan-08 05:00N 35°02' W 123°40'712.8
2018-Jan-08 04:30N 35°08' W 123°44'612.8
2018-Jan-08 04:00N 35°14' W 123°47'713.0
2018-Jan-08 03:30N 35°20' W 123°50'913.2
2018-Jan-08 02:50N 35°28' W 123°54'413.4
2018-Jan-08 02:30N 35°32' W 123°56'713.5
2018-Jan-08 02:00N 35°38' W 123°59'713.3
2018-Jan-08 01:30N 35°44' W 124°02'713.4
2018-Jan-08 01:00N 35°51' W 124°05'813.2
2018-Jan-08 00:25N 35°58' W 124°08'613.0
2018-Jan-07 23:58N 36°03' W 124°11'813.2
2018-Jan-07 23:23N 36°10' W 124°14'613.5
2018-Jan-07 22:57N 36°16' W 124°17'2413.1
2018-Jan-07 21:05N 36°39' W 124°28'212.8
2018-Jan-07 20:54N 36°41' W 124°29'712.6
2018-Jan-07 20:19N 36°48' W 124°33'412.6
2018-Jan-07 20:00N 36°51' W 124°35'612.5
2018-Jan-07 19:30N 36°57' W 124°38'612.4
2018-Jan-07 18:59N 37°03' W 124°41'612.4
2018-Jan-07 18:30N 37°09' W 124°43'712.6
2018-Jan-07 17:58N 37°15' W 124°46'612.6
2018-Jan-07 17:30N 37°20' W 124°49'812.9
2018-Jan-07 16:51N 37°28' W 124°53'  
2018-Jan-05 12:12N 48°18' W 125°13'412.6
2018-Jan-05 11:52N 48°21' W 125°10'512.0
2018-Jan-05 11:29N 48°26' W 125°07'612.2
2018-Jan-05 11:00N 48°30' W 125°01'611.6
2018-Jan-05 10:30N 48°32' W 124°53'612.2
2018-Jan-05 10:00N 48°31' W 124°43'612.7
2018-Jan-05 09:30N 48°29' W 124°35'612.7
2018-Jan-05 09:00N 48°26' W 124°26'612.3
2018-Jan-05 08:30N 48°23' W 124°18'612.5
2018-Jan-05 08:00N 48°21' W 124°09'713.1
2018-Jan-05 07:30N 48°18' W 123°60'714.0
2018-Jan-05 07:00N 48°17' W 123°50'816.7
2018-Jan-05 06:30N 48°16' W 123°37'714.3
2018-Jan-05 06:00N 48°19' W 123°28'510.0
2018-Jan-05 05:30N 48°23' W 123°24'611.2
2018-Jan-05 05:00N 48°24' W 123°15'611.5
2018-Jan-05 04:31N 48°29' W 123°12'713.0
2018-Jan-05 04:01N 48°35' W 123°14'611.9
2018-Jan-05 03:30N 48°41' W 123°15'5 9.4
2018-Jan-05 03:01N 48°44' W 123°09'611.4
2018-Jan-05 02:30N 48°46' W 123°02'4 8.2
2018-Jan-05 02:01N 48°50' W 123°03'510.2
2018-Jan-05 01:30N 48°54' W 123°09'612.6
2018-Jan-05 01:01N 48°58' W 123°15'713.5
2018-Jan-05 00:30N 49°03' W 123°23'611.7
2018-Jan-04 23:59N 49°09' W 123°23'612.1
2018-Jan-04 23:30N 49°15' W 123°21'510.7
2018-Jan-04 23:00N 49°19' W 123°15'3 6.4
2018-Jan-04 22:30N 49°19' W 123°10'3 6.9
2018-Jan-04 22:01N 49°18' W 123°06'3 6.9
2018-Jan-04 21:31N 49°18' W 123°00'2 3.5
2018-Jan-04 21:00N 49°18' W 122°58'1 1.0
2018-Jan-04 20:30N 49°17' W 122°57'0 0.0
2018-Jan-04 19:46N 49°17' W 122°57'0 0.0
2018-Jan-04 19:30N 49°17' W 122°57'0 0.0
2018-Jan-04 19:01N 49°17' W 122°57'0 0.0
2018-Jan-04 18:31N 49°17' W 122°57'0 0.0
2018-Jan-04 18:00N 49°17' W 122°57'0 0.0
2018-Jan-04 17:30N 49°17' W 122°57'0 0.0
2018-Jan-04 17:00N 49°17' W 122°57'0 0.0
2018-Jan-04 16:30N 49°17' W 122°57'0 0.0
2018-Jan-04 16:00N 49°17' W 122°57'0 0.0
2018-Jan-04 15:30N 49°17' W 122°57'0 0.0
2018-Jan-04 15:00N 49°17' W 122°57'0 0.0
2018-Jan-04 14:29N 49°17' W 122°57'0 0.0
2018-Jan-04 13:59N 49°17' W 122°57'0 0.0
2018-Jan-04 13:30N 49°17' W 122°57'0 0.0
2018-Jan-04 12:57N 49°17' W 122°57'0 0.0
2018-Jan-04 12:29N 49°17' W 122°57'0 0.0
2018-Jan-04 12:00N 49°17' W 122°57'0 0.0
2018-Jan-04 11:30N 49°17' W 122°57'0 0.0
2018-Jan-04 10:59N 49°17' W 122°57'0 0.0
2018-Jan-04 10:30N 49°17' W 122°57'0 0.0
2018-Jan-04 10:00N 49°17' W 122°57'0 0.0
2018-Jan-04 09:30N 49°17' W 122°57'0 0.0
2018-Jan-04 09:00N 49°17' W 122°57'0 0.0
2018-Jan-04 08:30N 49°17' W 122°57'0 0.0
2018-Jan-04 08:00N 49°17' W 122°57'0 0.0
2018-Jan-04 07:30N 49°17' W 122°57'0 0.0
2018-Jan-04 07:00N 49°17' W 122°57'0 0.0
2018-Jan-04 06:30N 49°17' W 122°57'0 0.0
2018-Jan-04 06:00N 49°17' W 122°57'0 0.0
2018-Jan-04 05:30N 49°17' W 122°57'0 0.0
2018-Jan-04 05:00N 49°17' W 122°57'0 0.0
2018-Jan-04 04:30N 49°17' W 122°57'0 0.0
2018-Jan-04 04:00N 49°17' W 122°57'0 0.0
2018-Jan-04 03:30N 49°17' W 122°57'0 0.0
2018-Jan-04 03:00N 49°17' W 122°57'0 0.0
2018-Jan-04 02:30N 49°17' W 122°57'0 0.0
2018-Jan-04 02:00N 49°17' W 122°57'0 0.0
2018-Jan-04 01:30N 49°17' W 122°57'0 0.0
2018-Jan-04 01:00N 49°17' W 122°57'0 0.0
2018-Jan-04 00:30N 49°17' W 122°57'0 0.0
2018-Jan-04 00:00N 49°17' W 122°57'0 0.0
2018-Jan-03 23:30N 49°17' W 122°57'0 0.0
2018-Jan-03 23:00N 49°17' W 122°57'0 0.0
2018-Jan-03 22:30N 49°17' W 122°57'0 0.0
2018-Jan-03 22:00N 49°17' W 122°57'0 0.0
2018-Jan-03 21:30N 49°17' W 122°57'0 0.0
2018-Jan-03 21:00N 49°17' W 122°57'0 0.0
2018-Jan-03 20:30N 49°17' W 122°57'0 0.0
2018-Jan-03 20:00N 49°17' W 122°57'0 0.0
2018-Jan-03 19:30N 49°17' W 122°57'0 0.0
2018-Jan-03 19:00N 49°17' W 122°57'0 0.0
2018-Jan-03 18:30N 49°17' W 122°57'0 0.0
2018-Jan-03 18:01N 49°17' W 122°57'0 0.0
2018-Jan-03 17:31N 49°17' W 122°57'0 0.0
2018-Jan-03 17:01N 49°17' W 122°57'0 0.0
2018-Jan-03 16:30N 49°17' W 122°57'0 0.0
2018-Jan-03 16:00N 49°17' W 122°57'0 0.0
2018-Jan-03 15:30N 49°17' W 122°57'0 0.0
2018-Jan-03 15:00N 49°17' W 122°57'0 0.0
2018-Jan-03 14:30N 49°17' W 122°57'1 1.5
2018-Jan-03 14:00N 49°18' W 122°56'0 0.1
2018-Jan-03 13:28N 49°18' W 122°56'0 0.1
2018-Jan-03 12:52N 49°18' W 122°56'0 0.1
2018-Jan-03 11:52N 49°18' W 122°56'0 0.3
2018-Jan-03 11:16N 49°18' W 122°56'0 0.3
2018-Jan-03 10:58N 49°18' W 122°56'0 0.0
2018-Jan-03 10:22N 49°18' W 122°56'0 0.1
2018-Jan-03 09:58N 49°18' W 122°56'0 0.1
2018-Jan-03 09:28N 49°18' W 122°56'0 0.1
2018-Jan-03 08:16N 49°18' W 122°56'0 0.0
2018-Jan-03 07:52N 49°18' W 122°56'0 0.1
2018-Jan-03 07:28N 49°18' W 122°56'0 0.1
2018-Jan-03 06:58N 49°18' W 122°56'0 0.1
2018-Jan-03 06:28N 49°18' W 122°56'0 0.0
2018-Jan-03 05:52N 49°18' W 122°56'0 0.0
2018-Jan-03 05:22N 49°18' W 122°56'0 0.1
2018-Jan-03 04:58N 49°18' W 122°56'0 0.1
2018-Jan-03 04:28N 49°18' W 122°56'0 0.0
2018-Jan-03 03:58N 49°18' W 122°56'0 0.0
2018-Jan-03 03:28N 49°18' W 122°56'0 0.0
2018-Jan-03 02:58N 49°18' W 122°56'0 0.1
2018-Jan-03 02:28N 49°18' W 122°56'0 0.0
2018-Jan-03 01:52N 49°18' W 122°56'0 0.1
2018-Jan-03 01:16N 49°18' W 122°56'0 0.0
2018-Jan-03 00:58N 49°18' W 122°56'0 0.1
2018-Jan-03 00:28N 49°18' W 122°56'0 0.1
2018-Jan-02 23:52N 49°18' W 122°56'0 0.0
2018-Jan-02 23:28N 49°18' W 122°56'0 0.1
2018-Jan-02 22:58N 49°18' W 122°56'0 0.1
2018-Jan-02 22:28N 49°18' W 122°56'0 0.1
2018-Jan-02 21:55N 49°18' W 122°56'0 0.0
2018-Jan-02 21:22N 49°18' W 122°56'0 0.1
2018-Jan-02 20:58N 49°18' W 122°56'0 0.1
2018-Jan-02 20:22N 49°18' W 122°56'0 0.0
2018-Jan-02 19:58N 49°18' W 122°56'0 0.0
2018-Jan-02 19:16N 49°18' W 122°56'0 0.1
2018-Jan-02 18:52N 49°18' W 122°56'0 0.0
2018-Jan-02 18:28N 49°18' W 122°56'0 0.1
2018-Jan-02 17:58N 49°18' W 122°56'0 0.1
2018-Jan-02 17:25N 49°18' W 122°56'0 0.1
2018-Jan-02 16:58N 49°18' W 122°56'0 0.0
2018-Jan-02 16:13N 49°18' W 122°56'0 0.2
2018-Jan-02 15:58N 49°18' W 122°56'0 0.2
2018-Jan-02 15:22N 49°18' W 122°56'0 0.1
2018-Jan-02 14:58N 49°18' W 122°56'0 0.0
2018-Jan-02 14:28N 49°18' W 122°56'0 0.0
2018-Jan-02 13:58N 49°18' W 122°56'0 0.0
2018-Jan-02 13:22N 49°18' W 122°56'0 0.0
2018-Jan-02 12:58N 49°18' W 122°56'0 0.1
2018-Jan-02 11:46N 49°18' W 122°56'0 0.1
2018-Jan-02 11:10N 49°18' W 122°56'0 0.0
2018-Jan-02 10:58N 49°18' W 122°56'0 0.1
2018-Jan-02 10:28N 49°18' W 122°56'0 0.1
2018-Jan-02 09:58N 49°18' W 122°56'0 0.1
2018-Jan-02 09:22N 49°18' W 122°56'  
Track history (hours):
 
Tides and Currents Weather Stations Pressure Air Temp Water Temp Dewpoint Dewpoint Depression Visibility Wind Speed Wind Dir Waves Ship Positions

Overseas Visayas

Last reported at 2018-Jan-12 09:14 UTC. Time now 2018-Jan-20 17:04 UTC.
Position N 32°13' W 117°34'.
Warning: this ship's position is 8 days out of date.

Length 228 m; draft 8.7 m.

Type: Ship (hazmat cat A). MMSI: 538002947.

Date/timePositionNaut miles runAvg speedWind from/ knotsBaromVisibWave heightAir tempDewpointWater temp
2018-Jan-12 09:14N 32°13' W 117°34'313.5
2018-Jan-12 09:00N 32°17' W 117°35'713.6
2018-Jan-12 08:28N 32°24' W 117°37'613.6
2018-Jan-12 08:00N 32°30' W 117°38'713.3
2018-Jan-12 07:30N 32°36' W 117°40'713.4
2018-Jan-12 07:00N 32°42' W 117°44'713.4
2018-Jan-12 06:30N 32°48' W 117°47'713.5
2018-Jan-12 06:00N 32°54' W 117°51'713.4
2018-Jan-12 05:30N 33°00' W 117°55'612.6
2018-Jan-12 05:00N 33°06' W 117°58'611.4
2018-Jan-12 04:30N 33°11' W 118°01'611.5
2018-Jan-12 04:00N 33°16' W 118°04'611.6
2018-Jan-12 03:30N 33°21' W 118°07'611.7
2018-Jan-12 03:00N 33°27' W 118°09'611.8
2018-Jan-12 02:30N 33°32' W 118°12'611.2
2018-Jan-12 02:00N 33°38' W 118°12'5 9.6
2018-Jan-12 01:28N 33°43' W 118°11'2 2.7
2018-Jan-12 00:42N 33°44' W 118°13'0 0.0
2018-Jan-12 00:30N 33°44' W 118°13'6 0.1
2018-Jan-09 20:54N 33°39' W 118°10'24 6.2
2018-Jan-09 17:04N 33°16' W 118°01'0 1.3
2018-Jan-09 16:59N 33°16' W 118°01'9 8.9
2018-Jan-09 16:01N 33°08' W 117°58'011.2
2018-Jan-09 15:59N 33°08' W 117°58'510.7
2018-Jan-09 15:30N 33°03' W 117°55'510.6
2018-Jan-09 15:00N 32°58' W 117°52'611.8
2018-Jan-09 14:30N 32°53' W 117°48'612.0
2018-Jan-09 14:00N 32°51' W 117°55'2 4.4
2018-Jan-09 13:30N 32°49' W 117°55'276 9.7
2018-Jan-08 09:10N 34°17' W 123°09'212.2
2018-Jan-08 09:00N 34°19' W 123°10'612.2
2018-Jan-08 08:30N 34°24' W 123°14'612.4
2018-Jan-08 08:00N 34°30' W 123°17'612.2
2018-Jan-08 07:30N 34°35' W 123°21'612.3
2018-Jan-08 07:00N 34°40' W 123°25'612.4
2018-Jan-08 06:30N 34°46' W 123°28'612.4
2018-Jan-08 06:00N 34°51' W 123°32'612.4
2018-Jan-08 05:30N 34°57' W 123°36'612.8
2018-Jan-08 05:00N 35°02' W 123°40'712.8
2018-Jan-08 04:30N 35°08' W 123°44'612.8
2018-Jan-08 04:00N 35°14' W 123°47'713.0
2018-Jan-08 03:30N 35°20' W 123°50'913.2
2018-Jan-08 02:50N 35°28' W 123°54'413.4
2018-Jan-08 02:30N 35°32' W 123°56'713.5
2018-Jan-08 02:00N 35°38' W 123°59'713.3
2018-Jan-08 01:30N 35°44' W 124°02'713.4
2018-Jan-08 01:00N 35°51' W 124°05'813.2
2018-Jan-08 00:25N 35°58' W 124°08'613.0
2018-Jan-07 23:58N 36°03' W 124°11'813.2
2018-Jan-07 23:23N 36°10' W 124°14'613.5
2018-Jan-07 22:57N 36°16' W 124°17'2413.1
2018-Jan-07 21:05N 36°39' W 124°28'212.8
2018-Jan-07 20:54N 36°41' W 124°29'712.6
2018-Jan-07 20:19N 36°48' W 124°33'412.6
2018-Jan-07 20:00N 36°51' W 124°35'612.5
2018-Jan-07 19:30N 36°57' W 124°38'612.4
2018-Jan-07 18:59N 37°03' W 124°41'612.4
2018-Jan-07 18:30N 37°09' W 124°43'712.6
2018-Jan-07 17:58N 37°15' W 124°46'612.6
2018-Jan-07 17:30N 37°20' W 124°49'812.9
2018-Jan-07 16:51N 37°28' W 124°53'  
2018-Jan-05 12:12N 48°18' W 125°13'412.6
2018-Jan-05 11:52N 48°21' W 125°10'512.0
2018-Jan-05 11:29N 48°26' W 125°07'612.2
2018-Jan-05 11:00N 48°30' W 125°01'611.6
2018-Jan-05 10:30N 48°32' W 124°53'612.2
2018-Jan-05 10:00N 48°31' W 124°43'612.7
2018-Jan-05 09:30N 48°29' W 124°35'612.7
2018-Jan-05 09:00N 48°26' W 124°26'612.3
2018-Jan-05 08:30N 48°23' W 124°18'612.5
2018-Jan-05 08:00N 48°21' W 124°09'713.1
2018-Jan-05 07:30N 48°18' W 123°60'714.0
2018-Jan-05 07:00N 48°17' W 123°50'816.7
2018-Jan-05 06:30N 48°16' W 123°37'714.3
2018-Jan-05 06:00N 48°19' W 123°28'510.0
2018-Jan-05 05:30N 48°23' W 123°24'611.2
2018-Jan-05 05:00N 48°24' W 123°15'611.5
2018-Jan-05 04:31N 48°29' W 123°12'713.0
2018-Jan-05 04:01N 48°35' W 123°14'611.9
2018-Jan-05 03:30N 48°41' W 123°15'5 9.4
2018-Jan-05 03:01N 48°44' W 123°09'611.4
2018-Jan-05 02:30N 48°46' W 123°02'4 8.2
2018-Jan-05 02:01N 48°50' W 123°03'510.2
2018-Jan-05 01:30N 48°54' W 123°09'612.6
2018-Jan-05 01:01N 48°58' W 123°15'713.5
2018-Jan-05 00:30N 49°03' W 123°23'611.7
2018-Jan-04 23:59N 49°09' W 123°23'612.1
2018-Jan-04 23:30N 49°15' W 123°21'510.7
2018-Jan-04 23:00N 49°19' W 123°15'3 6.4
2018-Jan-04 22:30N 49°19' W 123°10'3 6.9
2018-Jan-04 22:01N 49°18' W 123°06'3 6.9
2018-Jan-04 21:31N 49°18' W 123°00'2 3.5
2018-Jan-04 21:00N 49°18' W 122°58'1 1.0
2018-Jan-04 20:30N 49°17' W 122°57'0 0.0
2018-Jan-04 19:46N 49°17' W 122°57'0 0.0
2018-Jan-04 19:30N 49°17' W 122°57'0 0.0
2018-Jan-04 19:01N 49°17' W 122°57'0 0.0
2018-Jan-04 18:31N 49°17' W 122°57'0 0.0
2018-Jan-04 18:00N 49°17' W 122°57'0 0.0
2018-Jan-04 17:30N 49°17' W 122°57'0 0.0
2018-Jan-04 17:00N 49°17' W 122°57'0 0.0
2018-Jan-04 16:30N 49°17' W 122°57'0 0.0
2018-Jan-04 16:00N 49°17' W 122°57'0 0.0
2018-Jan-04 15:30N 49°17' W 122°57'0 0.0
2018-Jan-04 15:00N 49°17' W 122°57'0 0.0
2018-Jan-04 14:29N 49°17' W 122°57'0 0.0
2018-Jan-04 13:59N 49°17' W 122°57'0 0.0
2018-Jan-04 13:30N 49°17' W 122°57'0 0.0
2018-Jan-04 12:57N 49°17' W 122°57'0 0.0
2018-Jan-04 12:29N 49°17' W 122°57'0 0.0
2018-Jan-04 12:00N 49°17' W 122°57'0 0.0
2018-Jan-04 11:30N 49°17' W 122°57'0 0.0
2018-Jan-04 10:59N 49°17' W 122°57'0 0.0
2018-Jan-04 10:30N 49°17' W 122°57'0 0.0
2018-Jan-04 10:00N 49°17' W 122°57'0 0.0
2018-Jan-04 09:30N 49°17' W 122°57'0 0.0
2018-Jan-04 09:00N 49°17' W 122°57'0 0.0
2018-Jan-04 08:30N 49°17' W 122°57'0 0.0
2018-Jan-04 08:00N 49°17' W 122°57'0 0.0
2018-Jan-04 07:30N 49°17' W 122°57'0 0.0
2018-Jan-04 07:00N 49°17' W 122°57'0 0.0
2018-Jan-04 06:30N 49°17' W 122°57'0 0.0
2018-Jan-04 06:00N 49°17' W 122°57'0 0.0
2018-Jan-04 05:30N 49°17' W 122°57'0 0.0
2018-Jan-04 05:00N 49°17' W 122°57'0 0.0
2018-Jan-04 04:30N 49°17' W 122°57'0 0.0
2018-Jan-04 04:00N 49°17' W 122°57'0 0.0
2018-Jan-04 03:30N 49°17' W 122°57'0 0.0
2018-Jan-04 03:00N 49°17' W 122°57'0 0.0
2018-Jan-04 02:30N 49°17' W 122°57'0 0.0
2018-Jan-04 02:00N 49°17' W 122°57'0 0.0
2018-Jan-04 01:30N 49°17' W 122°57'0 0.0
2018-Jan-04 01:00N 49°17' W 122°57'0 0.0
2018-Jan-04 00:30N 49°17' W 122°57'0 0.0
2018-Jan-04 00:00N 49°17' W 122°57'0 0.0
2018-Jan-03 23:30N 49°17' W 122°57'0 0.0
2018-Jan-03 23:00N 49°17' W 122°57'0 0.0
2018-Jan-03 22:30N 49°17' W 122°57'0 0.0
2018-Jan-03 22:00N 49°17' W 122°57'0 0.0
2018-Jan-03 21:30N 49°17' W 122°57'0 0.0
2018-Jan-03 21:00N 49°17' W 122°57'0 0.0
2018-Jan-03 20:30N 49°17' W 122°57'0 0.0
2018-Jan-03 20:00N 49°17' W 122°57'0 0.0
2018-Jan-03 19:30N 49°17' W 122°57'0 0.0
2018-Jan-03 19:00N 49°17' W 122°57'0 0.0
2018-Jan-03 18:30N 49°17' W 122°57'0 0.0
2018-Jan-03 18:01N 49°17' W 122°57'0 0.0
2018-Jan-03 17:31N 49°17' W 122°57'0 0.0
2018-Jan-03 17:01N 49°17' W 122°57'0 0.0
2018-Jan-03 16:30N 49°17' W 122°57'0 0.0
2018-Jan-03 16:00N 49°17' W 122°57'0 0.0
2018-Jan-03 15:30N 49°17' W 122°57'0 0.0
2018-Jan-03 15:00N 49°17' W 122°57'0 0.0
2018-Jan-03 14:30N 49°17' W 122°57'1 1.5
2018-Jan-03 14:00N 49°18' W 122°56'0 0.1
2018-Jan-03 13:28N 49°18' W 122°56'0 0.1
2018-Jan-03 12:52N 49°18' W 122°56'0 0.1
2018-Jan-03 11:52N 49°18' W 122°56'0 0.3
2018-Jan-03 11:16N 49°18' W 122°56'0 0.3
2018-Jan-03 10:58N 49°18' W 122°56'0 0.0
2018-Jan-03 10:22N 49°18' W 122°56'0 0.1
2018-Jan-03 09:58N 49°18' W 122°56'0 0.1
2018-Jan-03 09:28N 49°18' W 122°56'0 0.1
2018-Jan-03 08:16N 49°18' W 122°56'0 0.0
2018-Jan-03 07:52N 49°18' W 122°56'0 0.1
2018-Jan-03 07:28N 49°18' W 122°56'0 0.1
2018-Jan-03 06:58N 49°18' W 122°56'0 0.1
2018-Jan-03 06:28N 49°18' W 122°56'0 0.0
2018-Jan-03 05:52N 49°18' W 122°56'0 0.0
2018-Jan-03 05:22N 49°18' W 122°56'0 0.1
2018-Jan-03 04:58N 49°18' W 122°56'0 0.1
2018-Jan-03 04:28N 49°18' W 122°56'0 0.0
2018-Jan-03 03:58N 49°18' W 122°56'0 0.0
2018-Jan-03 03:28N 49°18' W 122°56'0 0.0
2018-Jan-03 02:58N 49°18' W 122°56'0 0.1
2018-Jan-03 02:28N 49°18' W 122°56'0 0.0
2018-Jan-03 01:52N 49°18' W 122°56'0 0.1
2018-Jan-03 01:16N 49°18' W 122°56'0 0.0
2018-Jan-03 00:58N 49°18' W 122°56'0 0.1
2018-Jan-03 00:28N 49°18' W 122°56'0 0.1
2018-Jan-02 23:52N 49°18' W 122°56'0 0.0
2018-Jan-02 23:28N 49°18' W 122°56'0 0.1
2018-Jan-02 22:58N 49°18' W 122°56'0 0.1
2018-Jan-02 22:28N 49°18' W 122°56'0 0.1
2018-Jan-02 21:55N 49°18' W 122°56'0 0.0
2018-Jan-02 21:22N 49°18' W 122°56'0 0.1
2018-Jan-02 20:58N 49°18' W 122°56'0 0.1
2018-Jan-02 20:22N 49°18' W 122°56'0 0.0
2018-Jan-02 19:58N 49°18' W 122°56'0 0.0
2018-Jan-02 19:16N 49°18' W 122°56'0 0.1
2018-Jan-02 18:52N 49°18' W 122°56'0 0.0
2018-Jan-02 18:28N 49°18' W 122°56'0 0.1
2018-Jan-02 17:58N 49°18' W 122°56'0 0.1
2018-Jan-02 17:25N 49°18' W 122°56'0 0.1
2018-Jan-02 16:58N 49°18' W 122°56'0 0.0
2018-Jan-02 16:13N 49°18' W 122°56'0 0.2
2018-Jan-02 15:58N 49°18' W 122°56'0 0.2
2018-Jan-02 15:22N 49°18' W 122°56'0 0.1
2018-Jan-02 14:58N 49°18' W 122°56'0 0.0
2018-Jan-02 14:28N 49°18' W 122°56'0 0.0
2018-Jan-02 13:58N 49°18' W 122°56'0 0.0
2018-Jan-02 13:22N 49°18' W 122°56'0 0.0
2018-Jan-02 12:58N 49°18' W 122°56'0 0.1
2018-Jan-02 11:46N 49°18' W 122°56'0 0.1
2018-Jan-02 11:10N 49°18' W 122°56'0 0.0
2018-Jan-02 10:58N 49°18' W 122°56'0 0.1
2018-Jan-02 10:28N 49°18' W 122°56'0 0.1
2018-Jan-02 09:58N 49°18' W 122°56'0 0.1
2018-Jan-02 09:22N 49°18' W 122°56'  

Dump ship's entire track history